Aviation Digital Data Service (ADDS)

Output produced by METARs form (2114 UTC 20 November 2017)
found at http://www.aviationweather.gov/adds/metars/
 
KMKT 202056Z AUTO 22012G19KT 10SM CLR 09/M01 A2949 RMK AO2 SLP995 T00941011 55007
KRST 202054Z 21016KT 10SM CLR 09/01 A2950 RMK AO2 PK WND 21028/2009 SLP999 T00940011 56020
KMSP 202053Z 21006KT 10SM OVC170 08/M01 A2946 RMK AO2 SLP983 T00781006 56014